sensor_id;sensor_type;location;lat;lon;timestamp;P1;P2;P0
54869;PMS5003;40756;-37.950;145.008;2022-08-05T00:02:19;1;1;
54869;PMS5003;40756;-37.950;145.008;2022-08-05T00:04:48;1;1;
54869;PMS5003;40756;-37.950;145.008;2022-08-05T00:07:18;1;1;
54869;PMS5003;40756;-37.950;145.008;2022-08-05T00:09:48;0;0;
54869;PMS5003;40756;-37.950;145.008;2022-08-05T00:12:17;0;0;
54869;PMS5003;40756;-37.950;145.008;2022-08-05T00:14:47;1;1;
54869;PMS5003;40756;-37.950;145.008;2022-08-05T00:17:18;1;1;
54869;PMS5003;40756;-37.950;145.008;2022-08-05T00:19:52;2;1;
54869;PMS5003;40756;-37.950;145.008;2022-08-05T00:22:22;1;1;
54869;PMS5003;40756;-37.950;145.008;2022-08-05T00:24:52;0;0;
54869;PMS5003;40756;-37.950;145.008;2022-08-05T00:27:22;2;1;
54869;PMS5003;40756;-37.950;145.008;2022-08-05T00:29:51;1;0;
54869;PMS5003;40756;-37.950;145.008;2022-08-05T00:32:21;0;0;
54869;PMS5003;40756;-37.950;145.008;2022-08-05T00:34:51;0;0;
54869;PMS5003;40756;-37.950;145.008;2022-08-05T00:37:20;1;1;
54869;PMS5003;40756;-37.950;145.008;2022-08-05T00:39:51;0;0;
54869;PMS5003;40756;-37.950;145.008;2022-08-05T00:42:29;2;2;
54869;PMS5003;40756;-37.950;145.008;2022-08-05T00:44:59;0;0;
54869;PMS5003;40756;-37.950;145.008;2022-08-05T00:47:31;1;1;
54869;PMS5003;40756;-37.950;145.008;2022-08-05T00:50:00;0;0;
54869;PMS5003;40756;-37.950;145.008;2022-08-05T00:52:30;1;1;
54869;PMS5003;40756;-37.950;145.008;2022-08-05T00:55:01;2;1;
54869;PMS5003;40756;-37.950;145.008;2022-08-05T00:57:31;0;0;
54869;PMS5003;40756;-37.950;145.008;2022-08-05T01:00:02;1;1;
54869;PMS5003;40756;-37.950;145.008;2022-08-05T01:02:32;2;1;
54869;PMS5003;40756;-37.950;145.008;2022-08-05T01:05:02;1;1;
54869;PMS5003;40756;-37.950;145.008;2022-08-05T01:07:32;1;1;
54869;PMS5003;40756;-37.950;145.008;2022-08-05T01:10:02;1;1;
54869;PMS5003;40756;-37.950;145.008;2022-08-05T01:12:32;0;0;
54869;PMS5003;40756;-37.950;145.008;2022-08-05T01:15:03;2;1;
54869;PMS5003;40756;-37.950;145.008;2022-08-05T01:17:35;1;0;
54869;PMS5003;40756;-37.950;145.008;2022-08-05T01:20:12;1;0;
54869;PMS5003;40756;-37.950;145.008;2022-08-05T01:22:57;0;0;
54869;PMS5003;40756;-37.950;145.008;2022-08-05T01:25:45;0;0;
54869;PMS5003;40756;-37.950;145.008;2022-08-05T01:28:32;2;1;
54869;PMS5003;40756;-37.950;145.008;2022-08-05T01:31:09;0;0;
54869;PMS5003;40756;-37.950;145.008;2022-08-05T01:33:49;2;1;
54869;PMS5003;40756;-37.950;145.008;2022-08-05T01:36:28;0;0;
54869;PMS5003;40756;-37.950;145.008;2022-08-05T01:39:01;1;0;
54869;PMS5003;40756;-37.950;145.008;2022-08-05T01:41:33;3;3;
54869;PMS5003;40756;-37.950;145.008;2022-08-05T01:44:05;1;1;
54869;PMS5003;40756;-37.950;145.008;2022-08-05T01:46:36;0;0;
54869;PMS5003;40756;-37.950;145.008;2022-08-05T01:49:09;1;1;
54869;PMS5003;40756;-37.950;145.008;2022-08-05T01:51:41;1;1;
54869;PMS5003;40756;-37.950;145.008;2022-08-05T01:54:10;2;2;
54869;PMS5003;40756;-37.950;145.008;2022-08-05T01:56:43;1;0;
54869;PMS5003;40756;-37.950;145.008;2022-08-05T01:59:15;0;0;
54869;PMS5003;40756;-37.950;145.008;2022-08-05T02:01:48;2;1;
54869;PMS5003;40756;-37.950;145.008;2022-08-05T02:04:21;0;0;
54869;PMS5003;40756;-37.950;145.008;2022-08-05T02:06:53;0;0;
54869;PMS5003;40756;-37.950;145.008;2022-08-05T02:09:25;0;0;
54869;PMS5003;40756;-37.950;145.008;2022-08-05T02:11:56;1;1;
54869;PMS5003;40756;-37.950;145.008;2022-08-05T02:14:33;1;1;
54869;PMS5003;40756;-37.950;145.008;2022-08-05T02:17:10;0;0;
54869;PMS5003;40756;-37.950;145.008;2022-08-05T02:19:46;1;1;
54869;PMS5003;40756;-37.950;145.008;2022-08-05T02:22:20;0;0;
54869;PMS5003;40756;-37.950;145.008;2022-08-05T02:24:57;0;0;
54869;PMS5003;40756;-37.950;145.008;2022-08-05T02:27:33;1;1;
54869;PMS5003;40756;-37.950;145.008;2022-08-05T02:30:05;1;1;
54869;PMS5003;40756;-37.950;145.008;2022-08-05T02:30:10;1;1;
54869;PMS5003;40756;-37.950;145.008;2022-08-05T02:32:41;0;0;
54869;PMS5003;40756;-37.950;145.008;2022-08-05T02:35:15;0;0;
54869;PMS5003;40756;-37.950;145.008;2022-08-05T02:37:50;1;1;
54869;PMS5003;40756;-37.950;145.008;2022-08-05T02:40:21;1;1;
54869;PMS5003;40756;-37.950;145.008;2022-08-05T02:42:54;0;0;
54869;PMS5003;40756;-37.950;145.008;2022-08-05T02:45:25;0;0;
54869;PMS5003;40756;-37.950;145.008;2022-08-05T02:47:56;0;0;
54869;PMS5003;40756;-37.950;145.008;2022-08-05T02:50:29;0;0;
54869;PMS5003;40756;-37.950;145.008;2022-08-05T02:52:59;0;0;
54869;PMS5003;40756;-37.950;145.008;2022-08-05T02:55:29;1;1;
54869;PMS5003;40756;-37.950;145.008;2022-08-05T02:58:00;0;0;
54869;PMS5003;40756;-37.950;145.008;2022-08-05T03:00:30;1;0;
54869;PMS5003;40756;-37.950;145.008;2022-08-05T03:03:03;2;1;
54869;PMS5003;40756;-37.950;145.008;2022-08-05T03:05:34;0;0;
54869;PMS5003;40756;-37.950;145.008;2022-08-05T03:08:05;2;1;
54869;PMS5003;40756;-37.950;145.008;2022-08-05T03:10:35;0;0;
54869;PMS5003;40756;-37.950;145.008;2022-08-05T03:13:10;1;1;
54869;PMS5003;40756;-37.950;145.008;2022-08-05T03:15:42;1;1;
54869;PMS5003;40756;-37.950;145.008;2022-08-05T03:18:13;1;1;
54869;PMS5003;40756;-37.950;145.008;2022-08-05T03:20:42;1;1;
54869;PMS5003;40756;-37.950;145.008;2022-08-05T03:23:12;1;1;
54869;PMS5003;40756;-37.950;145.008;2022-08-05T03:25:43;1;0;
54869;PMS5003;40756;-37.950;145.008;2022-08-05T03:28:12;1;0;
54869;PMS5003;40756;-37.950;145.008;2022-08-05T03:30:43;2;1;
54869;PMS5003;40756;-37.950;145.008;2022-08-05T03:33:13;1;0;
54869;PMS5003;40756;-37.950;145.008;2022-08-05T03:35:45;0;0;
54869;PMS5003;40756;-37.950;145.008;2022-08-05T03:38:15;0;0;
54869;PMS5003;40756;-37.950;145.008;2022-08-05T03:40:45;0;0;
54869;PMS5003;40756;-37.950;145.008;2022-08-05T03:43:16;0;0;
54869;PMS5003;40756;-37.950;145.008;2022-08-05T03:45:45;1;1;
54869;PMS5003;40756;-37.950;145.008;2022-08-05T03:48:14;0;0;
54869;PMS5003;40756;-37.950;145.008;2022-08-05T03:50:47;1;1;
54869;PMS5003;40756;-37.950;145.008;2022-08-05T03:53:22;0;0;
54869;PMS5003;40756;-37.950;145.008;2022-08-05T03:56:01;0;0;
54869;PMS5003;40756;-37.950;145.008;2022-08-05T03:58:34;0;0;
54869;PMS5003;40756;-37.950;145.008;2022-08-05T04:01:06;0;0;
54869;PMS5003;40756;-37.950;145.008;2022-08-05T04:03:36;0;0;
54869;PMS5003;40756;-37.950;145.008;2022-08-05T04:06:09;1;0;
54869;PMS5003;40756;-37.950;145.008;2022-08-05T04:08:38;1;0;
54869;PMS5003;40756;-37.950;145.008;2022-08-05T04:11:08;0;0;
54869;PMS5003;40756;-37.950;145.008;2022-08-05T04:13:38;2;0;
54869;PMS5003;40756;-37.950;145.008;2022-08-05T04:16:09;0;0;
54869;PMS5003;40756;-37.950;145.008;2022-08-05T04:18:40;4;3;
54869;PMS5003;40756;-37.950;145.008;2022-08-05T04:21:13;2;2;
54869;PMS5003;40756;-37.950;145.008;2022-08-05T04:23:43;1;1;
54869;PMS5003;40756;-37.950;145.008;2022-08-05T04:26:13;1;1;
54869;PMS5003;40756;-37.950;145.008;2022-08-05T04:28:42;0;0;
54869;PMS5003;40756;-37.950;145.008;2022-08-05T04:31:12;3;2;
54869;PMS5003;40756;-37.950;145.008;2022-08-05T04:33:42;2;2;
54869;PMS5003;40756;-37.950;145.008;2022-08-05T04:36:11;1;1;
54869;PMS5003;40756;-37.950;145.008;2022-08-05T04:38:41;7;7;
54869;PMS5003;40756;-37.950;145.008;2022-08-05T04:41:11;3;3;
54869;PMS5003;40756;-37.950;145.008;2022-08-05T04:43:41;1;1;
54869;PMS5003;40756;-37.950;145.008;2022-08-05T04:46:11;3;3;
54869;PMS5003;40756;-37.950;145.008;2022-08-05T04:48:40;3;3;
54869;PMS5003;40756;-37.950;145.008;2022-08-05T04:51:10;2;1;
54869;PMS5003;40756;-37.950;145.008;2022-08-05T04:53:40;0;0;
54869;PMS5003;40756;-37.950;145.008;2022-08-05T04:56:09;2;2;
54869;PMS5003;40756;-37.950;145.008;2022-08-05T04:58:39;0;0;
54869;PMS5003;40756;-37.950;145.008;2022-08-05T05:01:10;2;2;
54869;PMS5003;40756;-37.950;145.008;2022-08-05T05:03:39;0;0;
54869;PMS5003;40756;-37.950;145.008;2022-08-05T05:06:10;8;7;
54869;PMS5003;40756;-37.950;145.008;2022-08-05T05:08:39;6;6;
54869;PMS5003;40756;-37.950;145.008;2022-08-05T05:11:09;6;5;
54869;PMS5003;40756;-37.950;145.008;2022-08-05T05:13:39;3;3;
54869;PMS5003;40756;-37.950;145.008;2022-08-05T05:16:08;4;4;
54869;PMS5003;40756;-37.950;145.008;2022-08-05T05:18:38;7;7;
54869;PMS5003;40756;-37.950;145.008;2022-08-05T05:21:09;3;3;
54869;PMS5003;40756;-37.950;145.008;2022-08-05T05:23:39;1;1;
54869;PMS5003;40756;-37.950;145.008;2022-08-05T05:26:09;2;2;
54869;PMS5003;40756;-37.950;145.008;2022-08-05T05:28:38;0;0;
54869;PMS5003;40756;-37.950;145.008;2022-08-05T05:31:08;2;1;
54869;PMS5003;40756;-37.950;145.008;2022-08-05T05:33:38;1;1;
54869;PMS5003;40756;-37.950;145.008;2022-08-05T05:36:07;0;0;
54869;PMS5003;40756;-37.950;145.008;2022-08-05T05:38:38;0;0;
54869;PMS5003;40756;-37.950;145.008;2022-08-05T05:41:07;0;0;
54869;PMS5003;40756;-37.950;145.008;2022-08-05T05:43:37;0;0;
54869;PMS5003;40756;-37.950;145.008;2022-08-05T05:46:08;0;0;
54869;PMS5003;40756;-37.950;145.008;2022-08-05T05:48:38;0;0;
54869;PMS5003;40756;-37.950;145.008;2022-08-05T05:51:08;0;0;
54869;PMS5003;40756;-37.950;145.008;2022-08-05T05:53:38;2;1;
54869;PMS5003;40756;-37.950;145.008;2022-08-05T05:56:07;2;2;
54869;PMS5003;40756;-37.950;145.008;2022-08-05T05:58:37;1;1;
54869;PMS5003;40756;-37.950;145.008;2022-08-05T06:01:07;1;1;
54869;PMS5003;40756;-37.950;145.008;2022-08-05T06:03:36;1;1;
54869;PMS5003;40756;-37.950;145.008;2022-08-05T06:06:07;0;0;
54869;PMS5003;40756;-37.950;145.008;2022-08-05T06:08:37;1;0;
54869;PMS5003;40756;-37.950;145.008;2022-08-05T06:11:06;2;2;
54869;PMS5003;40756;-37.950;145.008;2022-08-05T06:13:36;2;2;
54869;PMS5003;40756;-37.950;145.008;2022-08-05T06:16:06;4;4;
54869;PMS5003;40756;-37.950;145.008;2022-08-05T06:18:36;4;4;
54869;PMS5003;40756;-37.950;145.008;2022-08-05T06:21:05;4;3;
54869;PMS5003;40756;-37.950;145.008;2022-08-05T06:23:35;3;3;
54869;PMS5003;40756;-37.950;145.008;2022-08-05T06:26:05;4;3;
54869;PMS5003;40756;-37.950;145.008;2022-08-05T06:28:35;2;2;
54869;PMS5003;40756;-37.950;145.008;2022-08-05T06:31:04;8;6;
54869;PMS5003;40756;-37.950;145.008;2022-08-05T06:33:34;2;2;
54869;PMS5003;40756;-37.950;145.008;2022-08-05T06:36:04;3;3;
54869;PMS5003;40756;-37.950;145.008;2022-08-05T06:38:33;3;3;
54869;PMS5003;40756;-37.950;145.008;2022-08-05T06:41:04;6;6;
54869;PMS5003;40756;-37.950;145.008;2022-08-05T06:43:33;8;8;
54869;PMS5003;40756;-37.950;145.008;2022-08-05T06:46:03;21;21;
54869;PMS5003;40756;-37.950;145.008;2022-08-05T06:48:33;22;22;
54869;PMS5003;40756;-37.950;145.008;2022-08-05T06:51:03;8;7;
54869;PMS5003;40756;-37.950;145.008;2022-08-05T06:53:34;26;26;
54869;PMS5003;40756;-37.950;145.008;2022-08-05T06:56:03;3;3;
54869;PMS5003;40756;-37.950;145.008;2022-08-05T06:58:33;16;16;
54869;PMS5003;40756;-37.950;145.008;2022-08-05T07:01:04;5;5;
54869;PMS5003;40756;-37.950;145.008;2022-08-05T07:03:34;14;14;
54869;PMS5003;40756;-37.950;145.008;2022-08-05T07:06:04;15;14;
54869;PMS5003;40756;-37.950;145.008;2022-08-05T07:08:34;23;23;
54869;PMS5003;40756;-37.950;145.008;2022-08-05T07:11:04;6;6;
54869;PMS5003;40756;-37.950;145.008;2022-08-05T07:13:33;4;4;
54869;PMS5003;40756;-37.950;145.008;2022-08-05T07:16:03;2;2;
54869;PMS5003;40756;-37.950;145.008;2022-08-05T07:18:33;2;2;
54869;PMS5003;40756;-37.950;145.008;2022-08-05T07:21:03;1;1;
54869;PMS5003;40756;-37.950;145.008;2022-08-05T07:23:33;2;1;
54869;PMS5003;40756;-37.950;145.008;2022-08-05T07:26:03;3;3;
54869;PMS5003;40756;-37.950;145.008;2022-08-05T07:28:33;1;1;
54869;PMS5003;40756;-37.950;145.008;2022-08-05T07:31:03;3;3;
54869;PMS5003;40756;-37.950;145.008;2022-08-05T07:33:34;4;3;
54869;PMS5003;40756;-37.950;145.008;2022-08-05T07:36:05;4;4;
54869;PMS5003;40756;-37.950;145.008;2022-08-05T07:38:35;4;4;
54869;PMS5003;40756;-37.950;145.008;2022-08-05T07:41:05;3;2;
54869;PMS5003;40756;-37.950;145.008;2022-08-05T07:43:36;5;5;
54869;PMS5003;40756;-37.950;145.008;2022-08-05T07:46:07;6;5;
54869;PMS5003;40756;-37.950;145.008;2022-08-05T07:48:38;3;3;
54869;PMS5003;40756;-37.950;145.008;2022-08-05T07:51:07;4;4;
54869;PMS5003;40756;-37.950;145.008;2022-08-05T07:53:37;4;4;
54869;PMS5003;40756;-37.950;145.008;2022-08-05T07:56:07;14;13;
54869;PMS5003;40756;-37.950;145.008;2022-08-05T07:58:37;22;22;
54869;PMS5003;40756;-37.950;145.008;2022-08-05T08:01:06;21;21;
54869;PMS5003;40756;-37.950;145.008;2022-08-05T08:03:36;19;19;
54869;PMS5003;40756;-37.950;145.008;2022-08-05T08:06:05;27;25;
54869;PMS5003;40756;-37.950;145.008;2022-08-05T08:08:35;21;20;
54869;PMS5003;40756;-37.950;145.008;2022-08-05T08:11:06;21;19;
54869;PMS5003;40756;-37.950;145.008;2022-08-05T08:13:35;26;26;
54869;PMS5003;40756;-37.950;145.008;2022-08-05T08:16:07;14;14;
54869;PMS5003;40756;-37.950;145.008;2022-08-05T08:18:36;16;16;
54869;PMS5003;40756;-37.950;145.008;2022-08-05T08:21:06;24;23;
54869;PMS5003;40756;-37.950;145.008;2022-08-05T08:23:36;36;36;
54869;PMS5003;40756;-37.950;145.008;2022-08-05T08:26:05;26;25;
54869;PMS5003;40756;-37.950;145.008;2022-08-05T08:28:35;51;50;
54869;PMS5003;40756;-37.950;145.008;2022-08-05T08:31:05;31;30;
54869;PMS5003;40756;-37.950;145.008;2022-08-05T08:33:34;25;25;
54869;PMS5003;40756;-37.950;145.008;2022-08-05T08:36:05;23;22;
54869;PMS5003;40756;-37.950;145.008;2022-08-05T08:38:35;36;36;
54869;PMS5003;40756;-37.950;145.008;2022-08-05T08:41:07;27;26;
54869;PMS5003;40756;-37.950;145.008;2022-08-05T08:43:41;29;29;
54869;PMS5003;40756;-37.950;145.008;2022-08-05T08:46:13;31;28;
54869;PMS5003;40756;-37.950;145.008;2022-08-05T08:48:45;31;29;
54869;PMS5003;40756;-37.950;145.008;2022-08-05T08:51:16;29;25;
54869;PMS5003;40756;-37.950;145.008;2022-08-05T08:53:46;30;29;
54869;PMS5003;40756;-37.950;145.008;2022-08-05T08:56:16;23;23;
54869;PMS5003;40756;-37.950;145.008;2022-08-05T08:58:46;18;18;
54869;PMS5003;40756;-37.950;145.008;2022-08-05T09:01:16;18;18;
54869;PMS5003;40756;-37.950;145.008;2022-08-05T09:03:47;21;19;
54869;PMS5003;40756;-37.950;145.008;2022-08-05T09:06:17;17;17;
54869;PMS5003;40756;-37.950;145.008;2022-08-05T09:08:47;16;16;
54869;PMS5003;40756;-37.950;145.008;2022-08-05T09:11:17;19;18;
54869;PMS5003;40756;-37.950;145.008;2022-08-05T09:13:47;15;15;
54869;PMS5003;40756;-37.950;145.008;2022-08-05T09:16:17;21;21;
54869;PMS5003;40756;-37.950;145.008;2022-08-05T09:18:47;17;16;
54869;PMS5003;40756;-37.950;145.008;2022-08-05T09:21:18;16;16;
54869;PMS5003;40756;-37.950;145.008;2022-08-05T09:23:48;15;15;
54869;PMS5003;40756;-37.950;145.008;2022-08-05T09:26:31;15;15;
54869;PMS5003;40756;-37.950;145.008;2022-08-05T09:29:02;17;17;
54869;PMS5003;40756;-37.950;145.008;2022-08-05T09:31:33;15;15;
54869;PMS5003;40756;-37.950;145.008;2022-08-05T09:34:03;16;16;
54869;PMS5003;40756;-37.950;145.008;2022-08-05T09:36:39;11;11;
54869;PMS5003;40756;-37.950;145.008;2022-08-05T09:39:11;16;16;
54869;PMS5003;40756;-37.950;145.008;2022-08-05T09:41:58;15;15;
54869;PMS5003;40756;-37.950;145.008;2022-08-05T09:44:34;14;13;
54869;PMS5003;40756;-37.950;145.008;2022-08-05T09:47:07;13;13;
54869;PMS5003;40756;-37.950;145.008;2022-08-05T09:49:40;17;16;
54869;PMS5003;40756;-37.950;145.008;2022-08-05T09:52:18;10;10;
54869;PMS5003;40756;-37.950;145.008;2022-08-05T09:54:55;14;13;
54869;PMS5003;40756;-37.950;145.008;2022-08-05T09:57:30;11;10;
54869;PMS5003;40756;-37.950;145.008;2022-08-05T10:00:05;14;14;
54869;PMS5003;40756;-37.950;145.008;2022-08-05T10:02:39;11;11;
54869;PMS5003;40756;-37.950;145.008;2022-08-05T10:05:11;11;10;
54869;PMS5003;40756;-37.950;145.008;2022-08-05T10:07:43;11;11;
54869;PMS5003;40756;-37.950;145.008;2022-08-05T10:10:16;9;9;
54869;PMS5003;40756;-37.950;145.008;2022-08-05T10:12:48;12;12;
54869;PMS5003;40756;-37.950;145.008;2022-08-05T10:15:20;10;10;
54869;PMS5003;40756;-37.950;145.008;2022-08-05T10:18:09;10;10;
54869;PMS5003;40756;-37.950;145.008;2022-08-05T10:20:41;14;13;
54869;PMS5003;40756;-37.950;145.008;2022-08-05T10:23:14;15;15;
54869;PMS5003;40756;-37.950;145.008;2022-08-05T10:25:45;15;14;
54869;PMS5003;40756;-37.950;145.008;2022-08-05T10:28:15;14;14;
54869;PMS5003;40756;-37.950;145.008;2022-08-05T10:30:45;16;15;
54869;PMS5003;40756;-37.950;145.008;2022-08-05T10:33:15;14;14;
54869;PMS5003;40756;-37.950;145.008;2022-08-05T10:35:45;16;15;
54869;PMS5003;40756;-37.950;145.008;2022-08-05T10:38:15;14;14;
54869;PMS5003;40756;-37.950;145.008;2022-08-05T10:40:51;13;12;
54869;PMS5003;40756;-37.950;145.008;2022-08-05T10:43:32;14;14;
54869;PMS5003;40756;-37.950;145.008;2022-08-05T10:46:11;12;12;
54869;PMS5003;40756;-37.950;145.008;2022-08-05T10:48:43;14;13;
54869;PMS5003;40756;-37.950;145.008;2022-08-05T10:51:15;24;22;
54869;PMS5003;40756;-37.950;145.008;2022-08-05T10:53:52;17;16;
54869;PMS5003;40756;-37.950;145.008;2022-08-05T10:56:24;14;14;
54869;PMS5003;40756;-37.950;145.008;2022-08-05T10:59:04;12;12;
54869;PMS5003;40756;-37.950;145.008;2022-08-05T11:01:34;16;16;
54869;PMS5003;40756;-37.950;145.008;2022-08-05T11:04:08;15;14;
54869;PMS5003;40756;-37.950;145.008;2022-08-05T11:07:12;18;16;
54869;PMS5003;40756;-37.950;145.008;2022-08-05T11:09:43;13;13;
54869;PMS5003;40756;-37.950;145.008;2022-08-05T11:12:46;15;14;
54869;PMS5003;40756;-37.950;145.008;2022-08-05T11:15:17;17;15;
54869;PMS5003;40756;-37.950;145.008;2022-08-05T11:17:49;15;14;
54869;PMS5003;40756;-37.950;145.008;2022-08-05T11:20:52;18;18;
54869;PMS5003;40756;-37.950;145.008;2022-08-05T11:23:33;33;29;
54869;PMS5003;40756;-37.950;145.008;2022-08-05T11:26:08;38;37;
54869;PMS5003;40756;-37.950;145.008;2022-08-05T11:28:47;35;31;
54869;PMS5003;40756;-37.950;145.008;2022-08-05T11:31:18;38;36;
54869;PMS5003;40756;-37.950;145.008;2022-08-05T11:33:53;43;41;
54869;PMS5003;40756;-37.950;145.008;2022-08-05T11:36:41;30;29;
54869;PMS5003;40756;-37.950;145.008;2022-08-05T11:39:14;32;31;
54869;PMS5003;40756;-37.950;145.008;2022-08-05T11:42:13;31;30;
54869;PMS5003;40756;-37.950;145.008;2022-08-05T11:44:49;42;41;
54869;PMS5003;40756;-37.950;145.008;2022-08-05T11:47:21;47;46;
54869;PMS5003;40756;-37.950;145.008;2022-08-05T11:49:56;46;45;
54869;PMS5003;40756;-37.950;145.008;2022-08-05T11:52:27;37;36;
54869;PMS5003;40756;-37.950;145.008;2022-08-05T11:54:57;46;41;
54869;PMS5003;40756;-37.950;145.008;2022-08-05T11:57:28;37;34;
54869;PMS5003;40756;-37.950;145.008;2022-08-05T11:59:57;41;39;
54869;PMS5003;40756;-37.950;145.008;2022-08-05T12:02:27;52;46;
54869;PMS5003;40756;-37.950;145.008;2022-08-05T12:04:58;61;57;
54869;PMS5003;40756;-37.950;145.008;2022-08-05T12:07:33;52;51;
54869;PMS5003;40756;-37.950;145.008;2022-08-05T12:10:03;66;62;
54869;PMS5003;40756;-37.950;145.008;2022-08-05T12:12:39;65;61;
54869;PMS5003;40756;-37.950;145.008;2022-08-05T12:15:17;56;51;
54869;PMS5003;40756;-37.950;145.008;2022-08-05T12:17:47;52;47;
54869;PMS5003;40756;-37.950;145.008;2022-08-05T12:20:18;68;61;
54869;PMS5003;40756;-37.950;145.008;2022-08-05T12:23:07;52;49;
54869;PMS5003;40756;-37.950;145.008;2022-08-05T12:25:54;45;44;
54869;PMS5003;40756;-37.950;145.008;2022-08-05T12:28:31;45;42;
54869;PMS5003;40756;-37.950;145.008;2022-08-05T12:31:02;35;35;
54869;PMS5003;40756;-37.950;145.008;2022-08-05T12:33:33;54;52;
54869;PMS5003;40756;-37.950;145.008;2022-08-05T12:36:04;64;62;
54869;PMS5003;40756;-37.950;145.008;2022-08-05T12:38:35;71;63;
54869;PMS5003;40756;-37.950;145.008;2022-08-05T12:41:07;37;37;
54869;PMS5003;40756;-37.950;145.008;2022-08-05T12:43:48;30;29;
54869;PMS5003;40756;-37.950;145.008;2022-08-05T12:46:20;24;23;
54869;PMS5003;40756;-37.950;145.008;2022-08-05T12:48:56;25;23;
54869;PMS5003;40756;-37.950;145.008;2022-08-05T12:51:27;20;19;
54869;PMS5003;40756;-37.950;145.008;2022-08-05T12:53:58;20;19;
54869;PMS5003;40756;-37.950;145.008;2022-08-05T12:56:29;30;28;
54869;PMS5003;40756;-37.950;145.008;2022-08-05T12:59:14;37;36;
54869;PMS5003;40756;-37.950;145.008;2022-08-05T13:01:51;43;43;
54869;PMS5003;40756;-37.950;145.008;2022-08-05T13:04:25;48;46;
54869;PMS5003;40756;-37.950;145.008;2022-08-05T13:06:58;45;44;
54869;PMS5003;40756;-37.950;145.008;2022-08-05T13:09:30;42;41;
54869;PMS5003;40756;-37.950;145.008;2022-08-05T13:12:02;42;40;
54869;PMS5003;40756;-37.950;145.008;2022-08-05T13:14:34;31;31;
54869;PMS5003;40756;-37.950;145.008;2022-08-05T13:17:09;26;26;
54869;PMS5003;40756;-37.950;145.008;2022-08-05T13:20:02;29;28;
54869;PMS5003;40756;-37.950;145.008;2022-08-05T13:22:34;33;33;
54869;PMS5003;40756;-37.950;145.008;2022-08-05T13:25:05;29;29;
54869;PMS5003;40756;-37.950;145.008;2022-08-05T13:27:37;27;26;
54869;PMS5003;40756;-37.950;145.008;2022-08-05T13:30:09;22;22;
54869;PMS5003;40756;-37.950;145.008;2022-08-05T13:32:40;21;21;
54869;PMS5003;40756;-37.950;145.008;2022-08-05T13:35:10;23;22;
54869;PMS5003;40756;-37.950;145.008;2022-08-05T13:37:40;22;19;
54869;PMS5003;40756;-37.950;145.008;2022-08-05T13:40:12;19;19;
54869;PMS5003;40756;-37.950;145.008;2022-08-05T13:42:42;18;18;
54869;PMS5003;40756;-37.950;145.008;2022-08-05T13:45:12;17;17;
54869;PMS5003;40756;-37.950;145.008;2022-08-05T13:47:42;19;18;
54869;PMS5003;40756;-37.950;145.008;2022-08-05T13:50:12;15;14;
54869;PMS5003;40756;-37.950;145.008;2022-08-05T13:52:42;20;20;
54869;PMS5003;40756;-37.950;145.008;2022-08-05T13:55:13;16;16;
54869;PMS5003;40756;-37.950;145.008;2022-08-05T13:57:42;21;20;
54869;PMS5003;40756;-37.950;145.008;2022-08-05T14:00:12;17;17;
54869;PMS5003;40756;-37.950;145.008;2022-08-05T14:02:42;17;16;
54869;PMS5003;40756;-37.950;145.008;2022-08-05T14:05:39;20;19;
54869;PMS5003;40756;-37.950;145.008;2022-08-05T14:08:08;15;15;
54869;PMS5003;40756;-37.950;145.008;2022-08-05T14:10:38;15;15;
54869;PMS5003;40756;-37.950;145.008;2022-08-05T14:13:08;14;13;
54869;PMS5003;40756;-37.950;145.008;2022-08-05T14:15:38;16;15;
54869;PMS5003;40756;-37.950;145.008;2022-08-05T14:18:07;16;16;
54869;PMS5003;40756;-37.950;145.008;2022-08-05T14:20:37;16;16;
54869;PMS5003;40756;-37.950;145.008;2022-08-05T14:23:07;17;17;
54869;PMS5003;40756;-37.950;145.008;2022-08-05T14:25:37;22;22;
54869;PMS5003;40756;-37.950;145.008;2022-08-05T14:28:06;26;23;
54869;PMS5003;40756;-37.950;145.008;2022-08-05T14:30:36;26;24;
54869;PMS5003;40756;-37.950;145.008;2022-08-05T14:33:05;22;21;
54869;PMS5003;40756;-37.950;145.008;2022-08-05T14:35:35;22;21;
54869;PMS5003;40756;-37.950;145.008;2022-08-05T14:38:04;21;21;
54869;PMS5003;40756;-37.950;145.008;2022-08-05T14:40:34;20;20;
54869;PMS5003;40756;-37.950;145.008;2022-08-05T14:43:04;20;19;
54869;PMS5003;40756;-37.950;145.008;2022-08-05T14:45:33;21;20;
54869;PMS5003;40756;-37.950;145.008;2022-08-05T14:48:03;18;18;
54869;PMS5003;40756;-37.950;145.008;2022-08-05T14:50:32;18;17;
54869;PMS5003;40756;-37.950;145.008;2022-08-05T14:53:03;14;14;
54869;PMS5003;40756;-37.950;145.008;2022-08-05T14:55:32;14;14;
54869;PMS5003;40756;-37.950;145.008;2022-08-05T14:58:02;11;11;
54869;PMS5003;40756;-37.950;145.008;2022-08-05T15:00:32;13;13;
54869;PMS5003;40756;-37.950;145.008;2022-08-05T15:03:02;12;11;
54869;PMS5003;40756;-37.950;145.008;2022-08-05T15:05:32;11;10;
54869;PMS5003;40756;-37.950;145.008;2022-08-05T15:08:03;9;9;
54869;PMS5003;40756;-37.950;145.008;2022-08-05T15:10:32;12;12;
54869;PMS5003;40756;-37.950;145.008;2022-08-05T15:13:02;13;12;
54869;PMS5003;40756;-37.950;145.008;2022-08-05T15:15:32;10;10;
54869;PMS5003;40756;-37.950;145.008;2022-08-05T15:18:02;11;11;
54869;PMS5003;40756;-37.950;145.008;2022-08-05T15:20:32;10;9;
54869;PMS5003;40756;-37.950;145.008;2022-08-05T15:23:03;10;10;
54869;PMS5003;40756;-37.950;145.008;2022-08-05T15:25:33;10;10;
54869;PMS5003;40756;-37.950;145.008;2022-08-05T15:28:03;10;10;
54869;PMS5003;40756;-37.950;145.008;2022-08-05T15:30:33;10;9;
54869;PMS5003;40756;-37.950;145.008;2022-08-05T15:33:03;11;11;
54869;PMS5003;40756;-37.950;145.008;2022-08-05T15:35:33;13;12;
54869;PMS5003;40756;-37.950;145.008;2022-08-05T15:38:02;11;11;
54869;PMS5003;40756;-37.950;145.008;2022-08-05T15:40:32;11;10;
54869;PMS5003;40756;-37.950;145.008;2022-08-05T15:43:02;12;12;
54869;PMS5003;40756;-37.950;145.008;2022-08-05T15:45:32;13;13;
54869;PMS5003;40756;-37.950;145.008;2022-08-05T15:48:02;11;11;
54869;PMS5003;40756;-37.950;145.008;2022-08-05T15:50:32;10;10;
54869;PMS5003;40756;-37.950;145.008;2022-08-05T15:53:02;11;11;
54869;PMS5003;40756;-37.950;145.008;2022-08-05T15:55:32;13;11;
54869;PMS5003;40756;-37.950;145.008;2022-08-05T15:58:02;10;8;
54869;PMS5003;40756;-37.950;145.008;2022-08-05T16:00:32;14;13;
54869;PMS5003;40756;-37.950;145.008;2022-08-05T16:03:01;10;10;
54869;PMS5003;40756;-37.950;145.008;2022-08-05T16:05:32;12;12;
54869;PMS5003;40756;-37.950;145.008;2022-08-05T16:08:03;11;11;
54869;PMS5003;40756;-37.950;145.008;2022-08-05T16:10:33;14;13;
54869;PMS5003;40756;-37.950;145.008;2022-08-05T16:13:03;10;10;